Terminal Aerodrome Forecast
Issued by NWS Sterling, VA

Home | Current Version | Previous Version | Text Only | Print | Product List | Glossary On
Versions: 1 2 3 4 5 6 7 8 9 10 11 12 13 14 15 16 17 18 19 20 21 22 23 24 25 26
000
FTUS41 KLWX 180406 AAA
TAFIAD
TAF AMD
KIAD 180406Z 1804/1906 VRB03KT 1SM BR OVC005
      TEMPO 1804/1807 1/2SM FG OVC002
     FM180700 27004KT 3SM BR BKN140
     FM180900 30005KT P6SM SCT140
     FM182100 24004KT P6SM FEW250
     FM182300 16005KT P6SM FEW250=

USA.gov is the U.S. government's official web portal to all federal, state and local government web resources and services.